PDT,Max TemperatureF,Mean TemperatureF,Min TemperatureF,Max Dew PointF,MeanDew PointF,Min DewpointF,Max Humidity, Mean Humidity, Min Humidity, Max Sea Level PressureIn, Mean Sea Level PressureIn, Min Sea Level PressureIn, Max VisibilityMiles, Mean VisibilityMiles, Min VisibilityMiles, Max Wind SpeedMPH, Mean Wind SpeedMPH, Max Gust SpeedMPH,PrecipitationIn, CloudCover, Events, WindDirDegrees
2012-9-1,73,62,51,51,48,46,86,63,38,30.15,30.11,30.02,10,10,10,8,3,,0.00,0,,153
2012-9-2,72,62,53,52,49,44,86,65,38,30.22,30.18,30.14,10,10,10,7,2,,0.00,2,,327
2012-9-3,73,63,53,54,51,47,88,68,48,30.20,30.17,30.13,10,10,10,13,3,,0.00,2,,321
2012-9-4,75,64,52,57,52,48,86,64,42,30.23,30.18,30.12,10,10,10,12,2,,0.00,1,,315
2012-9-5,80,67,54,56,54,50,86,67,40,30.12,30.03,29.94,10,10,10,13,3,,0.00,0,,324
2012-9-6,82,71,60,57,54,52,83,60,36,30.06,30.02,29.97,10,10,10,13,7,17,0.00,0,,328
2012-9-7,89,72,55,58,52,47,83,55,24,30.15,30.08,30.02,10,10,8,12,3,,0.00,0,,316
2012-9-8,81,68,57,56,53,49,81,61,34,30.04,29.99,29.93,10,10,10,10,3,,0.00,0,,164
2012-9-9,69,64,59,54,52,49,82,66,52,30.04,30.00,29.97,10,10,10,12,7,20,0.00,8,Rain,165
2012-9-10,69,62,55,56,49,41,88,68,38,30.24,30.10,29.97,10,10,4,12,6,16,0.03,7,Rain,155
2012-9-11,68,60,51,47,44,41,77,58,39,30.33,30.30,30.25,10,10,10,14,4,,0.00,2,,324
2012-9-12,72,60,48,50,46,42,80,60,41,30.36,30.30,30.23,10,10,10,15,7,,0.00,0,,321
2012-9-13,82,68,55,53,49,45,77,56,29,30.24,30.14,30.04,10,10,7,14,10,,0.00,0,,315
2012-9-14,80,66,53,56,51,47,86,63,32,30.10,30.07,30.01,10,9,7,8,2,,0.00,0,,315
2012-9-15,75,62,52,56,51,49,89,69,45,30.19,30.15,30.06,10,10,8,6,2,,0.00,0,Rain,72
2012-9-16,75,62,50,55,52,47,89,71,42,30.24,30.18,30.13,10,10,8,10,3,,0.00,0,,311
2012-9-17,81,67,53,57,52,49,89,67,34,30.14,30.08,30.01,10,10,10,10,2,,0.00,0,,308
2012-9-18,82,68,54,57,53,50,87,65,33,30.10,30.04,30.01,10,9,6,7,2,,0.00,0,,347
2012-9-19,75,65,55,57,54,52,94,75,47,30.18,30.12,30.05,10,8,4,10,4,,0.00,3,,185
2012-9-20,71,62,53,55,53,50,94,78,57,30.14,30.09,30.05,10,8,2,9,2,,0.00,3,,168
2012-9-21,63,60,57,54,53,52,87,77,67,30.16,30.14,30.13,10,10,10,6,4,,0.00,8,,169
2012-9-22,66,60,54,55,53,50,94,80,56,30.18,30.16,30.13,10,8,1,5,1,,0.18,6,Rain,346
2012-9-23,69,59,50,51,49,46,94,76,50,30.18,30.15,30.12,10,10,3,8,1,,0.00,2,,313
2012-9-24,71,60,50,53,50,46,89,70,51,30.16,30.13,30.10,10,10,10,8,2,,0.00,2,,322
2012-9-25,68,60,55,53,52,50,84,73,54,30.16,30.13,30.11,10,10,10,8,4,,0.00,5,,331
2012-9-26,68,57,48,52,49,46,100,78,56,30.14,30.11,30.05,10,9,2,8,2,,0.00,3,,321
2012-9-27,73,62,50,54,51,47,93,76,49,30.09,30.04,29.95,10,8,1,8,1,,0.00,3,,310
2012-9-28,75,65,55,57,53,50,90,70,43,30.03,29.98,29.95,10,10,7,7,2,,0.01,0,Rain,329
2012-9-29,69,62,57,55,48,44,78,62,42,30.31,30.18,30.05,10,10,10,13,4,,0.00,5,,332
2012-9-30,70,58,46,48,46,42,87,64,39,30.42,30.38,30.32,10,10,10,13,3,,0.00,0,,321